Cridersville, OH

2:51 AM EDT on October 22, 2014 (GMT -0400)
Lima Allen County | Change Station
CLOSE
Current Station
Airport
Location: Lima,
Elevation: 974 ft
Nearby Weather Stations

Elev 974 ft 40.71 °N, 84.03 °W | Updated 58 minutes ago

Overcast
Overcast
45 °F
Feels Like 41 °F
N
8
Wind Variable Wind from North

Today
High -- | Low -- °F
--% Chance of Precip.
Yesterday
High -- | Low -- °F
Precip. -- in
7:54 AM 6:45 PM
Waning Crescent, 3% visible
Pressure 30.20 in
Visibility 10.0 miles
Clouds Mostly Cloudy 1700 ft
Overcast 2500 ft
Windchill 41 °F
Dew Point 37 °F
Humidity 74%
Rainfall 0.00 in
Snow Depth Not available.
UV 0 out of 12
Pollen 1.80 out of 12
Air Quality Not available.
Flu Activity Sporadic
METAR KAOH 220553Z AUTO 36007KT 10SM BKN017 OVC025 07/03 A3019 RMK AO2 SLP227 T00720028 10083 20072 57001

More Conditions Fewer Conditions

Pressure 30.20 in
Visibility 10.0 miles
Clouds Mostly Cloudy 1700 ft
Overcast 2500 ft
Windchill 41 °F
Dew Point 37 °F
Humidity 74%
Rainfall 0.00 in
Snow Depth Not available.
UV 0 out of 12
Pollen 1.80 out of 12
Air Quality Not available.
Flu Activity Sporadic
METAR KAOH 220553Z AUTO 36007KT 10SM BKN017 OVC025 07/03 A3019 RMK AO2 SLP227 T00720028 10083 20072 57001

More Conditions Fewer Conditions

10-Day Weather Forecast

Almanac

Astronomy

Oct. 22, 2014 Rise Set
Actual Time 7:54 AM EDT 6:45 PM EDT
Civil Twilight 7:27 AM EDT 7:13 PM EDT
Nautical Twilight 6:55 AM EDT 7:45 PM EDT
Astronomical Twilight 6:23 AM EDT 8:16 PM EDT
Moon 6:35 AM EDT 6:11 PM EDT
Length of Visible Light 11h 46m
Length of Day
10h 50m
Tomorrow will be 2m 31s shorter.
Waning Crescent, 3% of the Moon is Illuminated
Today
Waning Crescent
Oct 23
New
Oct 30
First Quarter
Nov 6
Full
Nov 14
Last Quarter

Today's Extremes

State Highs State Lows

Community

WunderPhotos

Upload Photos

1,763,884 photos uploaded!

Nearby

Snow Depth

Station Depth Elevation
No new snow has been reported.

Earthquake Activity

City Distance Mag. Time & Date
No recent earthquake activity has been reported nearby.
Minimum magnitude displayed is 2.5.

Coastal Water Temperatures

Place Temperature
No Stations Reporting

Nearby Weather Stations